createdAt,value
2019-06-26T00:02:00.227Z,15.08
2019-06-26T00:04:35.569Z,17.50
2019-06-26T00:07:09.782Z,16.75
2019-06-26T00:09:43.948Z,17.02
2019-06-26T00:12:20.300Z,14.70
2019-06-26T00:14:54.646Z,17.45
2019-06-26T00:17:28.827Z,16.20
2019-06-26T00:20:03.247Z,14.60
2019-06-26T00:22:38.781Z,18.37
2019-06-26T00:25:16.378Z,17.12
2019-06-26T00:27:50.300Z,18.27
2019-06-26T00:30:24.813Z,19.90
2019-06-26T00:33:01.137Z,17.27
2019-06-26T00:35:35.198Z,17.35
2019-06-26T00:38:09.589Z,17.17
2019-06-26T00:41:05.996Z,16.82
2019-06-26T00:43:45.083Z,21.52
2019-06-26T00:46:20.158Z,18.23
2019-06-26T00:48:56.309Z,22.40
2019-06-26T00:51:30.464Z,17.27
2019-06-26T01:02:26.715Z,17.25
2019-06-26T01:05:03.324Z,21.23
2019-06-26T01:07:39.009Z,20.32
2019-06-26T01:10:16.232Z,19.82
2019-06-26T01:12:51.236Z,23.98
2019-06-26T01:15:26.845Z,20.30
2019-06-26T01:18:05.670Z,20.92
2019-06-26T01:20:42.539Z,19.92
2019-06-26T01:23:17.626Z,17.37
2019-06-26T01:25:52.075Z,17.82
2019-06-26T01:28:27.202Z,19.95
2019-06-26T01:31:39.720Z,19.67
2019-06-26T01:37:52.145Z,24.63
2019-06-26T01:40:35.943Z,26.97
2019-06-26T01:43:44.522Z,19.48
2019-06-26T01:46:20.429Z,20.57
2019-06-26T01:49:03.498Z,21.00
2019-06-26T01:51:54.945Z,20.88
2019-06-26T01:54:35.731Z,22.35
2019-06-26T01:57:09.578Z,21.55
2019-06-26T01:59:44.157Z,18.12
2019-06-26T02:02:18.092Z,19.82
2019-06-26T02:04:52.522Z,18.23
2019-06-26T02:07:26.552Z,18.07
2019-06-26T02:10:00.568Z,18.40
2019-06-26T02:12:34.793Z,17.52
2019-06-26T02:15:10.836Z,18.00
2019-06-26T02:17:45.159Z,21.40
2019-06-26T02:20:19.649Z,17.37
2019-06-26T02:22:54.255Z,23.30
2019-06-26T02:25:28.226Z,21.65
2019-06-26T02:28:02.315Z,21.62
2019-06-26T02:30:36.189Z,20.68
2019-06-26T02:33:10.371Z,18.60
2019-06-26T02:35:47.350Z,19.50
2019-06-26T02:38:23.052Z,18.20
2019-06-26T02:40:59.873Z,18.82
2019-06-26T02:43:34.617Z,21.70
2019-06-26T02:46:10.469Z,20.90
2019-06-26T02:48:44.644Z,22.20
2019-06-26T02:51:18.876Z,20.50
2019-06-26T02:53:52.940Z,20.82
2019-06-26T03:04:29.138Z,20.05
2019-06-26T03:07:04.504Z,20.00
2019-06-26T03:09:42.435Z,21.17
2019-06-26T03:12:18.336Z,19.15
2019-06-26T03:15:20.978Z,18.48
2019-06-26T03:20:58.171Z,20.90
2019-06-26T03:23:34.245Z,27.55
2019-06-26T03:26:09.776Z,23.32
2019-06-26T03:29:26.915Z,21.62
2019-06-26T03:32:08.421Z,19.70
2019-06-26T03:34:44.524Z,25.10
2019-06-26T03:37:21.325Z,25.72
2019-06-26T03:39:59.047Z,21.65
2019-06-26T03:42:34.343Z,33.58
2019-06-26T03:45:24.575Z,30.02
2019-06-26T03:47:43.997Z,24.90
2019-06-26T03:50:17.373Z,21.77
2019-06-26T03:52:50.446Z,25.00
2019-06-26T03:55:23.878Z,30.15
2019-06-26T03:57:56.963Z,23.85
2019-06-26T04:00:41.436Z,29.00
2019-06-26T04:03:15.463Z,24.75
2019-06-26T04:05:49.638Z,22.50
2019-06-26T04:08:22.806Z,27.27
2019-06-26T04:10:55.954Z,24.63
2019-06-26T04:13:29.774Z,32.55
2019-06-26T04:16:02.860Z,27.35
2019-06-26T04:18:36.091Z,27.45
2019-06-26T04:21:09.232Z,26.52
2019-06-26T04:23:42.411Z,25.17
2019-06-26T04:26:15.490Z,27.13
2019-06-26T04:28:48.725Z,25.50
2019-06-26T04:31:21.883Z,22.73
2019-06-26T04:33:55.044Z,28.85
2019-06-26T04:36:28.205Z,24.63
2019-06-26T04:39:01.919Z,24.47
2019-06-26T04:41:36.425Z,21.17
2019-06-26T04:44:10.043Z,28.30
2019-06-26T04:46:44.141Z,25.12
2019-06-26T04:49:17.637Z,22.95
2019-06-26T04:51:51.237Z,26.52
2019-06-26T04:54:25.067Z,24.80
2019-06-26T04:56:58.497Z,23.27
2019-06-26T04:59:31.978Z,28.95
2019-06-26T05:02:05.362Z,23.67
2019-06-26T05:04:38.789Z,19.55
2019-06-26T05:07:12.881Z,20.65
2019-06-26T05:09:46.718Z,22.95
2019-06-26T05:12:20.182Z,24.72
2019-06-26T05:14:53.642Z,28.02
2019-06-26T05:17:27.336Z,21.68
2019-06-26T05:20:00.847Z,19.48
2019-06-26T05:22:34.258Z,20.60
2019-06-26T05:25:08.175Z,24.75
2019-06-26T05:27:41.749Z,17.75
2019-06-26T05:30:16.025Z,20.57
2019-06-26T05:32:49.657Z,20.45
2019-06-26T05:35:23.531Z,18.75
2019-06-26T05:37:57.377Z,19.85
2019-06-26T05:40:30.908Z,16.73
2019-06-26T05:43:04.506Z,20.68
2019-06-26T05:45:38.097Z,20.00
2019-06-26T05:48:11.742Z,17.60
2019-06-26T05:50:46.342Z,17.42
2019-06-26T05:53:19.805Z,15.88
2019-06-26T05:55:53.181Z,16.55
2019-06-26T05:58:26.581Z,15.43
2019-06-26T06:01:00.265Z,20.37
2019-06-26T06:03:33.974Z,23.87
2019-06-26T06:06:08.734Z,20.00
2019-06-26T06:08:42.636Z,18.00
2019-06-26T06:11:18.013Z,16.80
2019-06-26T06:13:51.580Z,14.83
2019-06-26T06:16:24.989Z,19.10
2019-06-26T06:18:58.986Z,18.67
2019-06-26T06:21:33.178Z,15.15
2019-06-26T06:24:07.554Z,15.05
2019-06-26T06:26:43.667Z,14.53
2019-06-26T06:29:17.280Z,16.25
2019-06-26T06:31:50.980Z,17.60
2019-06-26T06:34:24.578Z,16.50
2019-06-26T06:36:58.228Z,18.37
2019-06-26T06:39:31.863Z,20.70
2019-06-26T06:42:05.540Z,16.62
2019-06-26T06:44:38.993Z,17.70
2019-06-26T06:47:12.250Z,16.10
2019-06-26T06:49:45.480Z,18.05
2019-06-26T06:52:18.575Z,16.62
2019-06-26T06:54:51.759Z,15.50
2019-06-26T06:57:24.990Z,13.83
2019-06-26T06:59:59.158Z,18.77
2019-06-26T07:02:33.108Z,15.00
2019-06-26T07:05:06.579Z,14.15
2019-06-26T07:07:39.746Z,15.00
2019-06-26T07:10:13.201Z,14.00
2019-06-26T07:12:46.440Z,13.88
2019-06-26T07:15:20.285Z,14.23
2019-06-26T07:17:53.842Z,14.35
2019-06-26T07:20:26.987Z,13.08
2019-06-26T07:23:00.885Z,13.75
2019-06-26T07:25:34.193Z,16.90
2019-06-26T07:28:08.462Z,14.35
2019-06-26T07:30:41.867Z,18.55
2019-06-26T07:33:15.535Z,14.70
2019-06-26T07:35:48.840Z,14.43
2019-06-26T07:38:22.173Z,15.45
2019-06-26T07:40:55.576Z,12.80
2019-06-26T07:43:30.215Z,12.55
2019-06-26T07:46:03.667Z,12.10
2019-06-26T07:48:37.060Z,13.80
2019-06-26T07:51:10.841Z,14.38
2019-06-26T07:53:44.238Z,12.58
2019-06-26T07:56:17.764Z,10.68
2019-06-26T07:58:52.256Z,15.28
2019-06-26T08:01:26.636Z,17.12
2019-06-26T08:04:01.160Z,14.15
2019-06-26T08:06:34.940Z,13.60
2019-06-26T08:09:09.898Z,11.63
2019-06-26T08:11:44.844Z,12.43
2019-06-26T08:14:19.707Z,16.10
2019-06-26T08:16:53.543Z,15.15
2019-06-26T08:19:27.299Z,18.67
2019-06-26T08:22:01.187Z,9.33
2019-06-26T08:24:36.314Z,20.60
2019-06-26T08:27:13.225Z,18.87
2019-06-26T08:29:47.240Z,9.33
2019-06-26T08:32:26.040Z,12.70
2019-06-26T08:34:59.446Z,8.63
2019-06-26T08:37:35.304Z,8.75
2019-06-26T08:40:09.834Z,9.60
2019-06-26T08:42:44.189Z,13.22
2019-06-26T08:45:25.371Z,9.45
2019-06-26T08:48:13.484Z,10.35
2019-06-26T08:50:34.424Z,10.00
2019-06-26T08:53:09.769Z,8.38
2019-06-26T08:55:48.661Z,8.10
2019-06-26T08:58:27.378Z,8.98
2019-06-26T09:01:07.289Z,9.80
2019-06-26T09:03:43.749Z,11.38
2019-06-26T09:06:17.895Z,10.85
2019-06-26T09:08:54.275Z,10.82
2019-06-26T09:11:28.016Z,8.30
2019-06-26T09:14:05.534Z,10.15
2019-06-26T09:16:42.415Z,16.82
2019-06-26T09:19:17.759Z,9.28
2019-06-26T09:21:57.086Z,7.95
2019-06-26T09:24:41.643Z,6.67
2019-06-26T09:28:09.124Z,8.03
2019-06-26T09:32:14.049Z,7.35
2019-06-26T09:38:33.965Z,7.60
2019-06-26T09:41:54.877Z,7.80
2019-06-26T09:48:32.998Z,12.63
2019-06-26T09:52:03.585Z,9.40
2019-06-26T09:59:32.845Z,9.95
2019-06-26T10:02:08.331Z,11.40
2019-06-26T10:04:49.092Z,12.78
2019-06-26T10:07:26.395Z,10.65
2019-06-26T10:10:23.458Z,9.33
2019-06-26T10:13:01.121Z,9.00
2019-06-26T10:15:36.167Z,10.45
2019-06-26T10:18:13.929Z,13.08
2019-06-26T10:20:55.521Z,10.08
2019-06-26T10:31:55.534Z,10.40
2019-06-26T10:34:47.789Z,11.18
2019-06-26T10:40:39.239Z,11.15
2019-06-26T10:43:29.175Z,15.08
2019-06-26T10:46:08.209Z,13.05
2019-06-26T10:48:46.525Z,10.08
2019-06-26T10:51:20.486Z,8.18
2019-06-26T10:53:56.646Z,10.13
2019-06-26T10:56:34.684Z,8.25
2019-06-26T10:59:10.254Z,9.88
2019-06-26T11:01:45.332Z,9.05
2019-06-26T11:04:28.517Z,9.95
2019-06-26T11:07:02.568Z,12.05
2019-06-26T11:09:38.165Z,9.13
2019-06-26T11:12:21.565Z,11.22
2019-06-26T11:14:55.992Z,10.75
2019-06-26T11:17:34.384Z,10.60
2019-06-26T11:20:09.501Z,8.68
2019-06-26T11:23:07.936Z,18.50
2019-06-26T11:25:56.839Z,17.95
2019-06-26T11:28:36.545Z,10.23
2019-06-26T11:31:13.578Z,9.68
2019-06-26T11:33:55.655Z,11.45
2019-06-26T11:36:29.229Z,12.55
2019-06-26T11:39:04.194Z,19.57
2019-06-26T11:41:42.668Z,33.78
2019-06-26T11:44:16.558Z,20.65
2019-06-26T11:46:50.724Z,8.80
2019-06-26T11:49:27.544Z,8.25
2019-06-26T11:52:07.035Z,18.20
2019-06-26T11:54:41.114Z,12.13
2019-06-26T11:57:23.681Z,11.93
2019-06-26T11:59:54.111Z,7.42
2019-06-26T12:02:32.975Z,9.40
2019-06-26T12:05:08.403Z,9.70
2019-06-26T12:07:42.336Z,14.05
2019-06-26T12:10:17.081Z,8.50
2019-06-26T12:12:54.519Z,34.55
2019-06-26T12:15:32.107Z,14.07
2019-06-26T12:18:08.348Z,8.03
2019-06-26T12:20:43.547Z,8.15
2019-06-26T12:23:17.050Z,10.95
2019-06-26T12:25:53.933Z,12.47
2019-06-26T12:28:29.865Z,7.58
2019-06-26T12:32:13.646Z,10.38
2019-06-26T12:50:35.459Z,8.63
2019-06-26T12:53:04.382Z,7.20
2019-06-26T12:55:38.541Z,6.90
2019-06-26T12:58:19.979Z,8.33
2019-06-26T13:00:51.663Z,11.00
2019-06-26T13:03:25.195Z,7.65
2019-06-26T13:06:03.575Z,9.35
2019-06-26T13:08:37.991Z,7.35
2019-06-26T13:11:12.993Z,6.30
2019-06-26T13:14:02.413Z,6.83
2019-06-26T13:16:29.323Z,8.85
2019-06-26T13:19:06.369Z,7.00
2019-06-26T13:21:39.911Z,9.85
2019-06-26T13:24:13.536Z,9.88
2019-06-26T13:26:47.140Z,8.20
2019-06-26T13:29:20.924Z,8.78
2019-06-26T13:31:54.871Z,6.67
2019-06-26T13:34:30.112Z,7.08
2019-06-26T13:37:07.323Z,7.97
2019-06-26T13:39:40.398Z,5.53
2019-06-26T13:42:15.181Z,6.20
2019-06-26T13:44:48.729Z,8.55
2019-06-26T13:47:22.304Z,9.03
2019-06-26T13:49:55.898Z,6.80
2019-06-26T13:52:29.612Z,10.98
2019-06-26T13:55:03.116Z,8.25
2019-06-26T13:57:40.178Z,7.87
2019-06-26T14:00:19.747Z,5.10
2019-06-26T14:02:54.742Z,10.28
2019-06-26T14:05:29.663Z,13.35
2019-06-26T14:08:03.357Z,8.60
2019-06-26T14:10:37.353Z,7.35
2019-06-26T14:13:10.937Z,5.35
2019-06-26T14:15:46.111Z,11.55
2019-06-26T14:18:19.622Z,6.40
2019-06-26T14:20:53.990Z,6.15
2019-06-26T14:23:29.251Z,6.72
2019-06-26T14:26:02.767Z,7.30
2019-06-26T14:28:38.269Z,7.03
2019-06-26T14:31:11.787Z,7.87
2019-06-26T14:33:50.145Z,9.65
2019-06-26T14:36:23.914Z,6.70
2019-06-26T14:39:09.212Z,10.15
2019-06-26T14:41:48.086Z,9.05
2019-06-26T14:44:27.259Z,8.28
2019-06-26T14:47:04.042Z,8.08
2019-06-26T14:49:42.659Z,8.13
2019-06-26T14:52:19.758Z,8.40
2019-06-26T14:54:58.192Z,9.85
2019-06-26T14:57:34.390Z,12.47
2019-06-26T15:00:09.794Z,7.25
2019-06-26T15:02:46.145Z,10.38
2019-06-26T15:05:19.872Z,7.78
2019-06-26T15:07:55.560Z,10.72
2019-06-26T15:10:29.336Z,8.48
2019-06-26T15:13:07.567Z,7.65
2019-06-26T15:15:45.625Z,10.53
2019-06-26T15:18:19.538Z,11.90
2019-06-26T15:21:00.896Z,11.15
2019-06-26T15:23:39.749Z,8.10
2019-06-26T15:26:23.390Z,10.58
2019-06-26T15:28:54.164Z,11.20
2019-06-26T15:31:27.869Z,8.73
2019-06-26T15:34:03.824Z,10.10
2019-06-26T15:36:46.994Z,9.38
2019-06-26T15:39:39.665Z,13.08
2019-06-26T15:42:15.594Z,8.90
2019-06-26T15:44:50.800Z,9.20
2019-06-26T15:48:11.197Z,10.40
2019-06-26T15:50:49.072Z,13.15
2019-06-26T15:53:28.138Z,9.78
2019-06-26T15:56:06.427Z,12.60
2019-06-26T15:58:42.137Z,10.00
2019-06-26T16:01:15.836Z,11.48
2019-06-26T16:03:52.822Z,10.80
2019-06-26T16:06:45.669Z,9.18
2019-06-26T16:09:22.159Z,9.93
2019-06-26T16:11:58.913Z,8.05
2019-06-26T16:14:33.721Z,11.48
2019-06-26T16:17:13.406Z,10.68
2019-06-26T16:19:47.466Z,10.40
2019-06-26T16:22:31.864Z,12.33
2019-06-26T16:25:01.318Z,11.05
2019-06-26T16:27:34.959Z,11.50
2019-06-26T16:30:09.406Z,10.82
2019-06-26T16:33:03.358Z,9.28
2019-06-26T16:35:43.629Z,10.48
2019-06-26T16:38:31.069Z,12.35
2019-06-26T16:41:06.406Z,10.08
2019-06-26T16:43:40.256Z,16.02
2019-06-26T16:46:54.743Z,9.25
2019-06-26T16:49:28.660Z,8.95
2019-06-26T16:52:03.238Z,11.00
2019-06-26T16:54:47.752Z,11.20
2019-06-26T16:57:31.009Z,10.45
2019-06-26T17:00:21.399Z,9.33
2019-06-26T17:02:55.406Z,10.10
2019-06-26T17:05:29.238Z,11.88
2019-06-26T17:08:05.448Z,7.95
2019-06-26T17:10:40.357Z,12.15
2019-06-26T17:16:20.112Z,9.33
2019-06-26T17:18:53.903Z,16.50
2019-06-26T17:21:27.232Z,10.72
2019-06-26T17:24:00.549Z,9.83
2019-06-26T17:26:34.236Z,13.75
2019-06-26T17:29:07.552Z,10.03
2019-06-26T17:31:44.399Z,16.00
2019-06-26T17:34:18.022Z,23.80
2019-06-26T17:36:53.223Z,15.83
2019-06-26T17:39:27.763Z,15.05
2019-06-26T17:42:01.271Z,15.32
2019-06-26T17:44:34.769Z,14.47
2019-06-26T17:47:08.195Z,12.80
2019-06-26T17:49:42.745Z,15.60
2019-06-26T17:52:16.119Z,14.20
2019-06-26T17:54:51.011Z,15.60
2019-06-26T17:57:24.413Z,13.55
2019-06-26T17:59:57.854Z,53.33
2019-06-26T18:02:31.496Z,36.77
2019-06-26T18:05:08.995Z,53.65
2019-06-26T18:07:47.409Z,93.67
2019-06-26T18:10:20.841Z,43.40
2019-06-26T18:12:54.281Z,23.65
2019-06-26T18:15:31.448Z,55.80
2019-06-26T18:18:06.758Z,36.15
2019-06-26T18:20:40.081Z,35.68
2019-06-26T18:23:14.937Z,28.87
2019-06-26T18:25:54.083Z,35.50
2019-06-26T18:28:23.750Z,32.50
2019-06-26T18:30:59.190Z,25.80
2019-06-26T18:33:32.510Z,19.65
2019-06-26T18:36:06.063Z,21.73
2019-06-26T18:38:39.559Z,26.73
2019-06-26T18:41:13.447Z,17.37
2019-06-26T18:43:46.786Z,31.80
2019-06-26T18:46:24.785Z,18.70
2019-06-26T18:48:57.097Z,15.65
2019-06-26T18:51:36.085Z,19.82
2019-06-26T18:54:09.711Z,14.65
2019-06-26T18:56:42.897Z,14.40
2019-06-26T18:59:16.345Z,19.37
2019-06-26T19:01:49.631Z,14.68
2019-06-26T19:04:23.042Z,22.77
2019-06-26T19:07:00.466Z,16.35
2019-06-26T19:09:35.691Z,24.63
2019-06-26T19:12:09.081Z,19.90
2019-06-26T19:14:46.080Z,21.12
2019-06-26T19:17:19.887Z,23.42
2019-06-26T19:19:53.447Z,20.57
2019-06-26T19:22:27.006Z,13.48
2019-06-26T19:25:00.994Z,10.80
2019-06-26T19:27:38.553Z,12.47
2019-06-26T19:30:12.553Z,12.85
2019-06-26T19:32:46.599Z,12.20
2019-06-26T19:35:23.041Z,11.83
2019-06-26T19:37:56.722Z,15.35
2019-06-26T19:40:33.616Z,14.05
2019-06-26T19:43:11.189Z,8.53
2019-06-26T19:45:44.705Z,11.60
2019-06-26T19:48:24.605Z,12.07
2019-06-26T19:50:57.919Z,9.95
2019-06-26T19:53:31.556Z,9.55
2019-06-26T19:56:05.026Z,9.85
2019-06-26T19:58:38.335Z,12.73
2019-06-26T20:01:11.757Z,13.83
2019-06-26T20:03:46.223Z,14.50
2019-06-26T20:06:19.563Z,8.83
2019-06-26T20:08:57.295Z,11.53
2019-06-26T20:11:28.073Z,10.72
2019-06-26T20:14:01.207Z,15.55
2019-06-26T20:16:53.180Z,11.33
2019-06-26T20:19:29.394Z,13.53
2019-06-26T20:22:04.216Z,10.23
2019-06-26T20:24:44.134Z,9.93
2019-06-26T20:27:13.334Z,12.20
2019-06-26T20:29:46.566Z,11.03
2019-06-26T20:32:19.858Z,11.88
2019-06-26T20:34:53.146Z,11.30
2019-06-26T20:37:26.343Z,9.53
2019-06-26T20:40:00.000Z,9.28
2019-06-26T20:42:33.380Z,8.90
2019-06-26T20:45:08.605Z,23.95
2019-06-26T20:47:42.206Z,12.53
2019-06-26T20:50:16.730Z,11.68
2019-06-26T20:52:50.839Z,9.38
2019-06-26T20:55:24.431Z,10.90
2019-06-26T20:57:58.758Z,11.10
2019-06-26T21:00:32.632Z,13.53
2019-06-26T21:03:05.967Z,9.90
2019-06-26T21:05:39.237Z,10.05
2019-06-26T21:08:12.460Z,10.00
2019-06-26T21:10:47.266Z,8.60
2019-06-26T21:13:20.898Z,9.88
2019-06-26T21:15:55.160Z,10.58
2019-06-26T21:18:28.793Z,9.25
2019-06-26T21:21:05.046Z,9.83
2019-06-26T21:23:38.539Z,10.75
2019-06-26T21:26:11.787Z,8.90
2019-06-26T21:28:46.206Z,7.67
2019-06-26T21:31:19.486Z,9.00
2019-06-26T21:33:52.638Z,9.95
2019-06-26T21:36:25.893Z,12.37
2019-06-26T21:38:59.152Z,12.15
2019-06-26T21:41:32.445Z,8.40
2019-06-26T21:44:05.858Z,12.73
2019-06-26T21:46:40.231Z,7.53
2019-06-26T21:49:13.518Z,8.15
2019-06-26T21:51:46.722Z,9.28
2019-06-26T21:54:19.945Z,9.40
2019-06-26T21:57:11.303Z,6.97
2019-06-26T22:00:02.312Z,7.87
2019-06-26T22:02:57.605Z,7.55
2019-06-26T22:05:32.964Z,9.70
2019-06-26T22:08:19.512Z,9.03
2019-06-26T22:10:54.646Z,9.60
2019-06-26T22:13:28.106Z,7.10
2019-06-26T22:16:01.553Z,9.80
2019-06-26T22:18:36.540Z,9.38
2019-06-26T22:21:09.972Z,6.85
2019-06-26T22:23:45.765Z,8.23
2019-06-26T22:26:19.122Z,9.68
2019-06-26T22:28:52.477Z,7.30
2019-06-26T22:31:25.996Z,9.30
2019-06-26T22:33:59.672Z,8.68
2019-06-26T22:36:39.249Z,8.45
2019-06-26T22:39:09.211Z,6.92
2019-06-26T22:41:43.991Z,7.53
2019-06-26T22:44:17.590Z,6.80
2019-06-26T22:46:51.115Z,8.75
2019-06-26T22:49:25.440Z,7.40
2019-06-26T22:51:59.557Z,8.05
2019-06-26T22:54:33.128Z,7.78
2019-06-26T22:57:06.568Z,8.95
2019-06-26T22:59:41.215Z,7.45
2019-06-26T23:02:14.850Z,7.37
2019-06-26T23:04:48.472Z,8.60
2019-06-26T23:07:22.361Z,8.18
2019-06-26T23:09:55.814Z,7.12
2019-06-26T23:12:29.469Z,7.03
2019-06-26T23:15:04.061Z,9.03
2019-06-26T23:17:37.628Z,6.58
2019-06-26T23:20:11.577Z,5.67
2019-06-26T23:22:46.435Z,7.15
2019-06-26T23:25:21.334Z,6.90
2019-06-26T23:27:55.021Z,5.67
2019-06-26T23:30:28.781Z,7.70
2019-06-26T23:33:02.315Z,4.72
2019-06-26T23:35:47.212Z,6.12
2019-06-26T23:38:16.860Z,5.67
2019-06-26T23:40:50.532Z,5.05
2019-06-26T23:43:24.138Z,4.67
2019-06-26T23:45:57.738Z,4.28
2019-06-26T23:48:34.237Z,4.80
2019-06-26T23:51:08.980Z,5.62
2019-06-26T23:53:48.964Z,5.08
2019-06-26T23:56:39.479Z,4.58
2019-06-26T23:58:59.663Z,6.10
